BAW960M EGLL-EDDM
Flight info
| Callsign | BAW960M |
|---|---|
| Flight time | N/A |
| Altitude | 35000 |
| Route | DET L6 DVR UL9 KONAN UL607 SPI DCT MOVUM T109 HAREM T104 ROKIL ROKIL1A |
| Aircraft | A320/M-SDE3FGHIRWY/LB1 |
Departure
| Time | 2026-05-01 14:29 |
|---|---|
| Airport | London Heathrow Airport (EGLL) |
Arrival
| Time | N/A |
|---|---|
| Airport | Munich Airport (EDDM) |
| Time | Latitude | Longitude | Altitude | Speed | Heading |
|---|---|---|---|---|---|
| 2026-05-01 13:39 | 51.46931 | -0.48647 | 86 ft | 0 kts | 359° |
| 2026-05-01 14:14 | 51.46915 | -0.48647 | 91 ft | 4 kts | 359° |
| 2026-05-01 14:15 | 51.46893 | -0.48646 | 88 ft | 4 kts | 6° |
| 2026-05-01 14:15 | 51.46878 | -0.48660 | 89 ft | 4 kts | 83° |
| 2026-05-01 14:15 | 51.46877 | -0.48699 | 89 ft | 2 kts | 90° |
| 2026-05-01 14:15 | 51.46877 | -0.48702 | 88 ft | 0 kts | 90° |
| 2026-05-01 14:23 | 51.46877 | -0.48700 | 88 ft | 1 kts | 90° |
| 2026-05-01 14:23 | 51.46877 | -0.48676 | 87 ft | 3 kts | 90° |
| 2026-05-01 14:23 | 51.46877 | -0.48628 | 86 ft | 5 kts | 90° |
| 2026-05-01 14:23 | 51.46877 | -0.48561 | 86 ft | 7 kts | 90° |
| 2026-05-01 14:24 | 51.46864 | -0.48484 | 90 ft | 8 kts | 136° |
| 2026-05-01 14:24 | 51.46832 | -0.48470 | 86 ft | 2 kts | 176° |
| 2026-05-01 14:24 | 51.46828 | -0.48470 | 86 ft | 0 kts | 177° |
| 2026-05-01 14:26 | 51.46818 | -0.48469 | 89 ft | 3 kts | 177° |
| 2026-05-01 14:26 | 51.46748 | -0.48467 | 86 ft | 7 kts | 180° |
| 2026-05-01 14:26 | 51.46689 | -0.48468 | 86 ft | 10 kts | 180° |
| 2026-05-01 14:27 | 51.46617 | -0.48469 | 86 ft | 10 kts | 180° |
| 2026-05-01 14:27 | 51.46539 | -0.48468 | 86 ft | 11 kts | 179° |
| 2026-05-01 14:27 | 51.46488 | -0.48465 | 86 ft | 5 kts | 173° |
| 2026-05-01 14:28 | 51.46479 | -0.48303 | 88 ft | 29 kts | 89° |
| 2026-05-01 14:28 | 51.46480 | -0.47598 | 85 ft | 96 kts | 89° |
| 2026-05-01 14:28 | 51.46484 | -0.46229 | 91 ft | 147 kts | 90° |
| 2026-05-01 14:28 | 51.46493 | -0.44363 | 148 ft | 182 kts | 93° |
| 2026-05-01 14:29 | 51.46539 | -0.42439 | 882 ft | 171 kts | 92° |
| 2026-05-01 14:29 | 51.46294 | -0.40604 | 1343 ft | 171 kts | 131° |
| 2026-05-01 14:30 | 51.43732 | -0.35314 | 2196 ft | 239 kts | 118° |
| 2026-05-01 14:30 | 51.43305 | -0.32642 | 2679 ft | 260 kts | 103° |
| 2026-05-01 14:30 | 51.42962 | -0.29745 | 3496 ft | 265 kts | 104° |
| 2026-05-01 14:31 | 51.42172 | -0.23933 | 4881 ft | 270 kts | 106° |
| 2026-05-01 14:31 | 51.41769 | -0.21003 | 5313 ft | 271 kts | 106° |
| 2026-05-01 14:31 | 51.41362 | -0.18043 | 5562 ft | 271 kts | 105° |
| 2026-05-01 14:31 | 51.40957 | -0.15084 | 5815 ft | 273 kts | 105° |
| 2026-05-01 14:32 | 51.40549 | -0.12118 | 5965 ft | 274 kts | 107° |
| 2026-05-01 14:32 | 51.40142 | -0.09166 | 6007 ft | 274 kts | 105° |
| 2026-05-01 14:32 | 51.39728 | -0.06162 | 6174 ft | 278 kts | 107° |
| 2026-05-01 14:32 | 51.39312 | -0.03140 | 7057 ft | 279 kts | 106° |
| 2026-05-01 14:33 | 51.38889 | -0.00107 | 7907 ft | 280 kts | 107° |
| 2026-05-01 14:33 | 51.38460 | 0.02964 | 8728 ft | 284 kts | 107° |
| 2026-05-01 14:33 | 51.38025 | 0.06072 | 9540 ft | 286 kts | 107° |
| 2026-05-01 14:33 | 51.37590 | 0.09176 | 10301 ft | 289 kts | 107° |
| 2026-05-01 14:34 | 51.37132 | 0.12420 | 10617 ft | 309 kts | 107° |
| 2026-05-01 14:34 | 51.36637 | 0.15896 | 10783 ft | 331 kts | 106° |
| 2026-05-01 14:34 | 51.36127 | 0.19506 | 11268 ft | 340 kts | 106° |
| 2026-05-01 14:34 | 51.35607 | 0.23225 | 11918 ft | 343 kts | 106° |
| 2026-05-01 14:35 | 51.35084 | 0.26961 | 12605 ft | 346 kts | 107° |
| 2026-05-01 14:35 | 51.34550 | 0.30744 | 13310 ft | 349 kts | 107° |
| 2026-05-01 14:35 | 51.34008 | 0.34549 | 14008 ft | 351 kts | 107° |
| 2026-05-01 14:35 | 51.33461 | 0.38364 | 14592 ft | 354 kts | 107° |
| 2026-05-01 14:36 | 51.32916 | 0.42174 | 15171 ft | 357 kts | 107° |
| 2026-05-01 14:36 | 51.32366 | 0.46038 | 15641 ft | 359 kts | 107° |
| 2026-05-01 14:36 | 51.31808 | 0.49959 | 16208 ft | 362 kts | 107° |
| 2026-05-01 14:36 | 51.31243 | 0.53900 | 16796 ft | 365 kts | 107° |
| 2026-05-01 14:37 | 51.30672 | 0.57857 | 17391 ft | 367 kts | 107° |
| 2026-05-01 14:37 | 51.30071 | 0.61849 | 17974 ft | 370 kts | 109° |
| 2026-05-01 14:37 | 51.29391 | 0.65827 | 18552 ft | 372 kts | 110° |
| 2026-05-01 14:37 | 51.28653 | 0.69816 | 19085 ft | 374 kts | 111° |
| 2026-05-01 14:38 | 51.27901 | 0.73759 | 19625 ft | 376 kts | 111° |
| 2026-05-01 14:38 | 51.27133 | 0.77770 | 20192 ft | 379 kts | 111° |
| 2026-05-01 14:38 | 51.26365 | 0.81825 | 20752 ft | 382 kts | 111° |
| 2026-05-01 14:38 | 51.25601 | 0.85911 | 21295 ft | 384 kts | 110° |
| 2026-05-01 14:39 | 51.24840 | 0.90009 | 21818 ft | 387 kts | 110° |
| 2026-05-01 14:39 | 51.24083 | 0.94094 | 22362 ft | 389 kts | 110° |
| 2026-05-01 14:39 | 51.23314 | 0.98250 | 22833 ft | 391 kts | 110° |
| 2026-05-01 14:39 | 51.22540 | 1.02438 | 23316 ft | 394 kts | 110° |
| 2026-05-01 14:40 | 51.21759 | 1.06646 | 23808 ft | 396 kts | 110° |
| 2026-05-01 14:40 | 51.20970 | 1.10880 | 24189 ft | 398 kts | 110° |
| 2026-05-01 14:40 | 51.20177 | 1.15122 | 24580 ft | 401 kts | 110° |
| 2026-05-01 14:40 | 51.19386 | 1.19349 | 24957 ft | 403 kts | 110° |
| 2026-05-01 14:41 | 51.18578 | 1.23661 | 25338 ft | 405 kts | 110° |
| 2026-05-01 14:41 | 51.17762 | 1.27970 | 25702 ft | 407 kts | 111° |
| 2026-05-01 14:41 | 51.16937 | 1.32306 | 26060 ft | 409 kts | 111° |
| 2026-05-01 14:41 | 51.16263 | 1.36738 | 26389 ft | 416 kts | 102° |
| 2026-05-01 14:42 | 51.15993 | 1.41306 | 26742 ft | 420 kts | 98° |
| 2026-05-01 14:42 | 51.15779 | 1.45973 | 27089 ft | 422 kts | 98° |
| 2026-05-01 14:42 | 51.15563 | 1.50658 | 27434 ft | 424 kts | 98° |
| 2026-05-01 14:42 | 51.15340 | 1.55352 | 27781 ft | 426 kts | 98° |
| 2026-05-01 14:43 | 51.15112 | 1.60072 | 28124 ft | 428 kts | 98° |
| 2026-05-01 14:43 | 51.14879 | 1.64813 | 28457 ft | 430 kts | 98° |
| 2026-05-01 14:43 | 51.14641 | 1.69578 | 28790 ft | 432 kts | 98° |
| 2026-05-01 14:43 | 51.14402 | 1.74308 | 29109 ft | 434 kts | 98° |
| 2026-05-01 14:44 | 51.14156 | 1.79135 | 29428 ft | 436 kts | 98° |
| 2026-05-01 14:44 | 51.13667 | 1.88772 | 30310 ft | 435 kts | 98° |
| 2026-05-01 14:44 | 51.13420 | 1.93560 | 30677 ft | 434 kts | 98° |
| 2026-05-01 14:45 | 51.13168 | 1.98356 | 31050 ft | 433 kts | 98° |
| 2026-05-01 14:45 | 51.12659 | 2.07931 | 31808 ft | 433 kts | 98° |
| 2026-05-01 14:45 | 51.12407 | 2.12622 | 32180 ft | 432 kts | 98° |
| 2026-05-01 14:46 | 51.12150 | 2.17386 | 32561 ft | 432 kts | 98° |
| 2026-05-01 14:46 | 51.11637 | 2.26915 | 33334 ft | 431 kts | 98° |
| 2026-05-01 14:46 | 51.11373 | 2.31672 | 33706 ft | 431 kts | 98° |
| 2026-05-01 14:47 | 51.11108 | 2.36428 | 34097 ft | 430 kts | 98° |
| 2026-05-01 14:47 | 51.10843 | 2.41187 | 34392 ft | 431 kts | 98° |
| 2026-05-01 14:47 | 51.10578 | 2.45945 | 34679 ft | 431 kts | 98° |
| 2026-05-01 14:48 | 51.10038 | 2.55406 | 35160 ft | 431 kts | 98° |
| 2026-05-01 14:48 | 51.08661 | 2.69662 | 35205 ft | 438 kts | 109° |
| 2026-05-01 14:49 | 51.05275 | 2.88331 | 35216 ft | 439 kts | 108° |
| 2026-05-01 14:50 | 51.01879 | 3.06966 | 35214 ft | 439 kts | 109° |
| 2026-05-01 14:51 | 50.99288 | 3.20943 | 35216 ft | 440 kts | 109° |
| 2026-05-01 14:52 | 50.96700 | 3.34876 | 35199 ft | 440 kts | 108° |
| 2026-05-01 14:53 | 50.94091 | 3.48797 | 35203 ft | 440 kts | 109° |
| 2026-05-01 14:53 | 50.92325 | 3.58124 | 35208 ft | 441 kts | 109° |
| 2026-05-01 14:54 | 50.90557 | 3.67398 | 35222 ft | 441 kts | 109° |
| 2026-05-01 14:54 | 50.88766 | 3.76710 | 35223 ft | 441 kts | 109° |
| 2026-05-01 14:55 | 50.86972 | 3.85954 | 35220 ft | 441 kts | 109° |
| 2026-05-01 14:55 | 50.85163 | 3.95251 | 35229 ft | 442 kts | 109° |
| 2026-05-01 14:56 | 50.83347 | 4.04556 | 35235 ft | 442 kts | 109° |
| 2026-05-01 14:56 | 50.81522 | 4.13860 | 35250 ft | 442 kts | 109° |
| 2026-05-01 14:57 | 50.79699 | 4.23111 | 35256 ft | 442 kts | 109° |
| 2026-05-01 14:57 | 50.76948 | 4.36985 | 35261 ft | 442 kts | 109° |
| 2026-05-01 14:58 | 50.75094 | 4.46269 | 35265 ft | 442 kts | 109° |
| 2026-05-01 14:58 | 50.73240 | 4.55473 | 35261 ft | 441 kts | 109° |
| 2026-05-01 14:59 | 50.71392 | 4.64708 | 35255 ft | 441 kts | 109° |
| 2026-05-01 14:59 | 50.69598 | 4.73994 | 35235 ft | 442 kts | 108° |
| 2026-05-01 15:00 | 50.66923 | 4.87865 | 35243 ft | 442 kts | 108° |
| 2026-05-01 15:01 | 50.65089 | 4.97129 | 35240 ft | 442 kts | 109° |
| 2026-05-01 15:01 | 50.63181 | 5.06345 | 35238 ft | 442 kts | 109° |
| 2026-05-01 15:02 | 50.61270 | 5.15512 | 35222 ft | 442 kts | 109° |
| 2026-05-01 15:02 | 50.59347 | 5.24765 | 35215 ft | 444 kts | 109° |
| 2026-05-01 15:03 | 50.57427 | 5.34017 | 35217 ft | 445 kts | 109° |
| 2026-05-01 15:03 | 50.55507 | 5.43220 | 35224 ft | 445 kts | 109° |
| 2026-05-01 15:04 | 50.53560 | 5.52485 | 35231 ft | 446 kts | 110° |
| 2026-05-01 15:04 | 50.51596 | 5.61757 | 35227 ft | 446 kts | 110° |
| 2026-05-01 15:05 | 50.49770 | 5.71057 | 35230 ft | 448 kts | 106° |
| 2026-05-01 15:05 | 50.48402 | 5.78920 | 35243 ft | 448 kts | 107° |
| 2026-05-01 15:06 | 50.46496 | 5.89909 | 35247 ft | 448 kts | 107° |
| 2026-05-01 15:06 | 50.45070 | 5.97800 | 35251 ft | 448 kts | 107° |
| 2026-05-01 15:07 | 50.43338 | 6.07150 | 35247 ft | 449 kts | 107° |
| 2026-05-01 15:07 | 50.41576 | 6.16568 | 35240 ft | 450 kts | 107° |
| 2026-05-01 15:08 | 50.39828 | 6.25951 | 35241 ft | 450 kts | 107° |
| 2026-05-01 15:08 | 50.38074 | 6.35370 | 35248 ft | 451 kts | 108° |
| 2026-05-01 15:09 | 50.36307 | 6.44772 | 35247 ft | 451 kts | 107° |
| 2026-05-01 15:09 | 50.34526 | 6.54213 | 35247 ft | 452 kts | 107° |
| 2026-05-01 15:10 | 50.32736 | 6.63663 | 35246 ft | 453 kts | 107° |
| 2026-05-01 15:10 | 50.30030 | 6.77824 | 35279 ft | 454 kts | 107° |
| 2026-05-01 15:11 | 50.27303 | 6.92031 | 35304 ft | 455 kts | 107° |
| 2026-05-01 15:12 | 50.25477 | 7.01464 | 35311 ft | 456 kts | 107° |
| 2026-05-01 15:12 | 50.22705 | 7.15719 | 35314 ft | 456 kts | 107° |
| 2026-05-01 15:14 | 50.18073 | 7.39319 | 35312 ft | 456 kts | 107° |
| 2026-05-01 15:14 | 50.15258 | 7.53479 | 35317 ft | 455 kts | 107° |
| 2026-05-01 15:15 | 50.11484 | 7.72290 | 35315 ft | 455 kts | 107° |
| 2026-05-01 15:16 | 50.07701 | 7.91079 | 35306 ft | 456 kts | 107° |
| 2026-05-01 15:18 | 50.02893 | 8.14583 | 35297 ft | 456 kts | 107° |
| 2026-05-01 15:19 | 49.98998 | 8.33424 | 35295 ft | 457 kts | 107° |
| 2026-05-01 15:19 | 49.96073 | 8.47478 | 35301 ft | 457 kts | 107° |
| 2026-05-01 15:20 | 49.93577 | 8.56523 | 35308 ft | 457 kts | 119° |
| 2026-05-01 15:20 | 49.92006 | 8.60781 | 35301 ft | 458 kts | 119° |
| 2026-05-01 15:21 | 49.88833 | 8.69356 | 35302 ft | 457 kts | 119° |
| 2026-05-01 15:21 | 49.85665 | 8.77929 | 35301 ft | 458 kts | 119° |
| 2026-05-01 15:22 | 49.80921 | 8.90717 | 35316 ft | 457 kts | 119° |
| 2026-05-01 15:22 | 49.77729 | 8.99266 | 35303 ft | 458 kts | 120° |
| 2026-05-01 15:23 | 49.74535 | 9.07788 | 35327 ft | 457 kts | 119° |
| 2026-05-01 15:23 | 49.71351 | 9.16257 | 35319 ft | 458 kts | 119° |
| 2026-05-01 15:24 | 49.68149 | 9.24778 | 35324 ft | 458 kts | 120° |
| 2026-05-01 15:24 | 49.64941 | 9.33278 | 35323 ft | 458 kts | 119° |
| 2026-05-01 15:25 | 49.61637 | 9.41616 | 35327 ft | 459 kts | 126° |
| 2026-05-01 15:25 | 49.57476 | 9.49109 | 35329 ft | 458 kts | 130° |
| 2026-05-01 15:26 | 49.53285 | 9.56454 | 35340 ft | 458 kts | 130° |
| 2026-05-01 15:26 | 49.49084 | 9.63810 | 35342 ft | 458 kts | 130° |
| 2026-05-01 15:27 | 49.44920 | 9.71077 | 35323 ft | 450 kts | 130° |
| 2026-05-01 15:28 | 49.38717 | 9.81860 | 35045 ft | 449 kts | 130° |
| 2026-05-01 15:28 | 49.36616 | 9.85501 | 33731 ft | 463 kts | 130° |
| 2026-05-01 15:28 | 49.34466 | 9.89214 | 32509 ft | 466 kts | 130° |
| 2026-05-01 15:29 | 49.30189 | 9.96568 | 30694 ft | 459 kts | 129° |
| 2026-05-01 15:29 | 49.28072 | 10.00201 | 29875 ft | 453 kts | 130° |
| 2026-05-01 15:29 | 49.23928 | 10.07307 | 28345 ft | 437 kts | 130° |
| 2026-05-01 15:30 | 49.19998 | 10.14032 | 27349 ft | 415 kts | 130° |
| 2026-05-01 15:31 | 49.12597 | 10.26639 | 25525 ft | 384 kts | 131° |
| 2026-05-01 15:31 | 49.09011 | 10.32414 | 24710 ft | 371 kts | 131° |
| 2026-05-01 15:32 | 49.05462 | 10.38032 | 23910 ft | 365 kts | 131° |
| 2026-05-01 15:32 | 49.01973 | 10.43588 | 23048 ft | 360 kts | 131° |
| 2026-05-01 15:33 | 48.96869 | 10.51756 | 21800 ft | 352 kts | 131° |
| 2026-05-01 15:34 | 48.91843 | 10.59758 | 20506 ft | 347 kts | 131° |